createdAt,value
2023-03-31T00:01:36.923Z,11.80
2023-03-31T00:04:05.468Z,11.70
2023-03-31T00:06:41.862Z,11.70
2023-03-31T00:09:13.686Z,11.70
2023-03-31T00:11:40.898Z,11.70
2023-03-31T00:14:09.183Z,11.70
2023-03-31T00:16:38.343Z,11.60
2023-03-31T00:19:09.764Z,11.70
2023-03-31T00:21:37.012Z,11.70
2023-03-31T00:24:07.077Z,11.70
2023-03-31T00:26:35.644Z,11.70
2023-03-31T00:29:06.206Z,11.70
2023-03-31T00:31:35.047Z,11.70
2023-03-31T00:34:02.667Z,11.70
2023-03-31T00:36:30.000Z,11.70
2023-03-31T00:39:07.328Z,11.70
2023-03-31T00:41:36.519Z,11.70
2023-03-31T00:44:28.045Z,11.70
2023-03-31T00:47:18.083Z,11.70
2023-03-31T00:49:51.714Z,11.70
2023-03-31T00:52:37.391Z,11.60
2023-03-31T00:55:13.658Z,11.60
2023-03-31T00:57:44.616Z,11.60
2023-03-31T01:00:18.340Z,11.60
2023-03-31T01:03:03.437Z,11.60
2023-03-31T01:05:36.711Z,11.60
2023-03-31T01:08:05.982Z,11.60
2023-03-31T01:10:43.174Z,11.60
2023-03-31T01:13:14.878Z,11.50
2023-03-31T01:15:43.847Z,11.60
2023-03-31T01:18:14.696Z,11.60
2023-03-31T01:21:20.028Z,11.60
2023-03-31T01:24:26.600Z,11.60
2023-03-31T01:27:13.848Z,11.60
2023-03-31T01:30:45.052Z,11.60
2023-03-31T01:33:50.715Z,11.70
2023-03-31T01:36:53.054Z,11.70
2023-03-31T01:40:01.219Z,11.60
2023-03-31T01:42:46.588Z,11.60
2023-03-31T01:45:51.652Z,11.60
2023-03-31T01:48:44.867Z,11.60
2023-03-31T01:51:29.337Z,11.60
2023-03-31T01:54:18.286Z,11.60
2023-03-31T01:57:11.405Z,11.50
2023-03-31T01:59:52.404Z,11.50
2023-03-31T02:02:37.218Z,11.50
2023-03-31T02:05:17.426Z,11.50
2023-03-31T02:07:58.627Z,11.50
2023-03-31T02:10:31.429Z,11.50
2023-03-31T02:13:02.818Z,11.50
2023-03-31T02:15:42.327Z,11.50
2023-03-31T02:18:17.172Z,11.50
2023-03-31T02:20:50.585Z,11.50
2023-03-31T02:23:26.564Z,11.50
2023-03-31T02:26:10.222Z,11.50
2023-03-31T02:28:38.838Z,11.40
2023-03-31T02:31:19.526Z,11.40
2023-03-31T02:33:48.732Z,11.30
2023-03-31T02:36:17.119Z,11.40
2023-03-31T02:38:55.708Z,11.40
2023-03-31T02:41:23.364Z,11.50
2023-03-31T02:43:50.712Z,11.40
2023-03-31T02:46:18.089Z,11.40
2023-03-31T02:49:08.491Z,11.40
2023-03-31T02:51:52.939Z,11.40
2023-03-31T02:54:57.764Z,11.40
2023-03-31T02:57:33.958Z,11.40
2023-03-31T03:00:52.916Z,11.50
2023-03-31T03:03:42.956Z,11.40
2023-03-31T03:06:53.756Z,11.40
2023-03-31T03:10:00.288Z,11.40
2023-03-31T03:12:45.068Z,11.40
2023-03-31T03:15:31.546Z,11.40
2023-03-31T03:17:59.654Z,11.40
2023-03-31T03:20:27.820Z,11.30
2023-03-31T03:22:55.417Z,11.30
2023-03-31T03:25:24.299Z,11.30
2023-03-31T03:27:53.106Z,11.30
2023-03-31T03:30:20.362Z,11.30
2023-03-31T03:32:48.031Z,11.30
2023-03-31T03:35:15.396Z,11.30
2023-03-31T03:37:43.704Z,11.20
2023-03-31T03:40:11.303Z,11.20
2023-03-31T03:42:38.707Z,11.20
2023-03-31T03:45:07.050Z,11.20
2023-03-31T03:47:36.021Z,11.30
2023-03-31T03:50:05.257Z,11.20
2023-03-31T03:52:32.835Z,11.20
2023-03-31T03:55:03.282Z,11.20
2023-03-31T03:57:30.864Z,11.20
2023-03-31T03:59:58.037Z,11.20
2023-03-31T04:02:28.025Z,11.20
2023-03-31T04:04:55.289Z,11.20
2023-03-31T04:07:22.700Z,11.20
2023-03-31T04:09:49.686Z,11.30
2023-03-31T04:12:16.991Z,11.20
2023-03-31T04:14:44.038Z,11.30
2023-03-31T04:17:15.626Z,11.30
2023-03-31T04:19:42.902Z,11.30
2023-03-31T04:22:11.723Z,11.30
2023-03-31T04:24:38.942Z,11.30
2023-03-31T04:27:10.457Z,11.30
2023-03-31T04:29:38.022Z,11.30
2023-03-31T04:32:05.898Z,11.30
2023-03-31T04:34:35.991Z,11.30
2023-03-31T04:37:03.976Z,11.30
2023-03-31T04:39:31.709Z,11.30
2023-03-31T04:42:00.901Z,11.20
2023-03-31T04:44:28.812Z,11.20
2023-03-31T04:46:56.794Z,11.20
2023-03-31T04:49:23.879Z,11.20
2023-03-31T04:51:51.301Z,11.20
2023-03-31T04:54:18.434Z,11.20
2023-03-31T04:56:46.782Z,11.20
2023-03-31T04:59:14.362Z,11.20
2023-03-31T05:01:45.537Z,11.20
2023-03-31T05:04:14.454Z,11.20
2023-03-31T05:06:41.968Z,11.20
2023-03-31T05:09:10.062Z,11.20
2023-03-31T05:11:38.330Z,11.20
2023-03-31T05:14:05.696Z,11.20
2023-03-31T05:16:33.109Z,11.20
2023-03-31T05:19:00.641Z,11.20
2023-03-31T05:21:30.426Z,11.20
2023-03-31T05:23:58.058Z,11.20
2023-03-31T05:26:26.634Z,11.20
2023-03-31T05:28:54.660Z,11.20
2023-03-31T05:31:22.596Z,11.30
2023-03-31T05:33:49.759Z,11.30
2023-03-31T05:36:18.412Z,11.30
2023-03-31T05:38:46.032Z,11.40
2023-03-31T05:41:13.463Z,11.30
2023-03-31T05:43:40.727Z,11.30
2023-03-31T05:46:08.573Z,11.40
2023-03-31T05:48:37.884Z,11.30
2023-03-31T05:51:05.955Z,11.40
2023-03-31T05:53:34.047Z,11.40
2023-03-31T05:56:06.376Z,11.50
2023-03-31T05:58:36.196Z,11.50
2023-03-31T06:01:11.268Z,11.50
2023-03-31T06:03:41.837Z,11.50
2023-03-31T06:06:14.723Z,11.60
2023-03-31T06:08:44.471Z,11.60
2023-03-31T06:11:16.330Z,11.60
2023-03-31T06:13:43.491Z,11.70
2023-03-31T06:16:13.229Z,11.80
2023-03-31T06:18:41.738Z,11.90
2023-03-31T06:21:16.859Z,12.00
2023-03-31T06:23:45.926Z,12.00
2023-03-31T06:26:17.718Z,12.20
2023-03-31T06:28:46.855Z,12.20
2023-03-31T06:31:21.269Z,12.40
2023-03-31T06:33:49.464Z,12.60
2023-03-31T06:36:20.244Z,12.80
2023-03-31T06:38:48.448Z,13.00
2023-03-31T06:41:18.705Z,13.10
2023-03-31T06:43:46.390Z,13.30
2023-03-31T06:46:14.459Z,13.50
2023-03-31T06:48:42.207Z,13.70
2023-03-31T06:51:10.329Z,13.80
2023-03-31T06:53:37.804Z,13.90
2023-03-31T06:56:06.997Z,14.10
2023-03-31T06:58:34.700Z,14.10
2023-03-31T07:01:05.957Z,14.30
2023-03-31T07:03:34.696Z,14.50
2023-03-31T07:06:03.093Z,14.80
2023-03-31T07:08:31.174Z,15.10
2023-03-31T07:11:01.158Z,15.30
2023-03-31T07:13:29.348Z,15.50
2023-03-31T07:15:57.356Z,15.70
2023-03-31T07:18:26.187Z,15.80
2023-03-31T07:20:53.887Z,15.90
2023-03-31T07:23:21.357Z,16.00
2023-03-31T07:25:49.185Z,16.10
2023-03-31T07:28:17.369Z,15.90
2023-03-31T07:30:44.837Z,15.80
2023-03-31T07:33:12.744Z,15.80
2023-03-31T07:35:41.846Z,15.70
2023-03-31T07:38:11.304Z,15.70
2023-03-31T07:40:40.077Z,15.60
2023-03-31T07:43:07.624Z,15.40
2023-03-31T07:45:35.878Z,15.40
2023-03-31T07:48:03.369Z,15.30
2023-03-31T07:50:30.916Z,15.20
2023-03-31T07:52:59.757Z,15.30
2023-03-31T07:55:27.401Z,15.50
2023-03-31T07:57:54.601Z,15.80
2023-03-31T08:00:23.302Z,15.90
2023-03-31T08:02:50.762Z,16.00
2023-03-31T08:05:21.136Z,15.90
2023-03-31T08:07:50.804Z,15.70
2023-03-31T08:10:26.116Z,15.70
2023-03-31T08:12:56.027Z,15.80
2023-03-31T08:15:23.797Z,15.90
2023-03-31T08:17:51.197Z,15.90
2023-03-31T08:20:18.659Z,16.00
2023-03-31T08:22:46.069Z,16.20
2023-03-31T08:25:13.390Z,16.30
2023-03-31T08:27:41.176Z,16.50
2023-03-31T08:30:11.530Z,16.70
2023-03-31T08:32:39.186Z,16.80
2023-03-31T08:35:08.718Z,17.10
2023-03-31T08:37:37.522Z,17.30
2023-03-31T08:40:09.556Z,17.50
2023-03-31T08:42:43.479Z,17.50
2023-03-31T08:45:32.074Z,17.60
2023-03-31T08:48:29.223Z,17.70
2023-03-31T08:51:25.844Z,17.80
2023-03-31T08:54:05.649Z,17.80
2023-03-31T08:56:39.171Z,17.90
2023-03-31T08:59:20.117Z,17.80
2023-03-31T09:02:13.487Z,17.80
2023-03-31T09:05:15.448Z,17.50
2023-03-31T09:08:09.735Z,17.70
2023-03-31T09:11:04.615Z,18.00
2023-03-31T09:14:13.993Z,18.00
2023-03-31T09:16:59.481Z,18.10
2023-03-31T09:19:54.775Z,18.10
2023-03-31T09:22:37.295Z,18.30
2023-03-31T09:25:25.271Z,18.20
2023-03-31T09:27:59.208Z,18.10
2023-03-31T09:30:33.532Z,18.20
2023-03-31T09:33:32.135Z,18.30
2023-03-31T09:36:01.723Z,18.60
2023-03-31T09:38:31.033Z,18.90
2023-03-31T09:41:02.424Z,19.20
2023-03-31T09:43:35.107Z,19.40
2023-03-31T09:46:12.694Z,19.60
2023-03-31T09:48:50.654Z,19.80
2023-03-31T09:51:30.477Z,19.90
2023-03-31T09:54:10.406Z,20.20
2023-03-31T09:56:43.501Z,20.70
2023-03-31T09:59:20.569Z,20.80
2023-03-31T10:01:53.332Z,20.90
2023-03-31T10:04:28.735Z,21.20
2023-03-31T10:06:57.141Z,21.10
2023-03-31T10:09:31.721Z,21.20
2023-03-31T10:12:14.957Z,21.30
2023-03-31T10:14:50.520Z,21.40
2023-03-31T10:17:28.062Z,21.40
2023-03-31T10:19:59.815Z,21.60
2023-03-31T10:22:32.428Z,21.50
2023-03-31T10:25:28.871Z,21.60
2023-03-31T10:27:57.879Z,21.50
2023-03-31T10:30:35.272Z,21.20
2023-03-31T10:33:23.066Z,21.10
2023-03-31T10:36:00.358Z,21.20
2023-03-31T10:38:37.346Z,21.30
2023-03-31T10:41:04.931Z,21.40
2023-03-31T10:43:50.017Z,21.40
2023-03-31T10:46:17.925Z,21.60
2023-03-31T10:48:46.416Z,21.80
2023-03-31T10:51:21.800Z,22.00
2023-03-31T10:53:52.918Z,22.20
2023-03-31T10:56:35.045Z,22.40
2023-03-31T10:59:26.478Z,22.60
2023-03-31T11:02:29.936Z,22.70
2023-03-31T11:05:28.766Z,22.40
2023-03-31T11:08:31.311Z,22.30
2023-03-31T11:11:46.496Z,22.10
2023-03-31T11:14:46.829Z,21.80
2023-03-31T11:17:32.194Z,21.60
2023-03-31T11:20:09.759Z,21.40
2023-03-31T11:23:06.280Z,21.00
2023-03-31T11:26:07.397Z,20.70
2023-03-31T11:29:17.541Z,20.50
2023-03-31T11:32:25.928Z,20.30
2023-03-31T11:35:10.151Z,20.20
2023-03-31T11:38:05.356Z,20.10
2023-03-31T11:41:12.764Z,19.90
2023-03-31T11:43:47.077Z,20.00
2023-03-31T11:46:46.969Z,20.00
2023-03-31T11:49:24.913Z,20.00
2023-03-31T11:52:05.996Z,20.10
2023-03-31T11:54:41.285Z,20.10
2023-03-31T11:57:30.979Z,20.20
2023-03-31T12:00:16.779Z,20.20
2023-03-31T12:03:14.498Z,20.20
2023-03-31T12:05:50.834Z,20.20
2023-03-31T12:08:43.614Z,20.30
2023-03-31T12:11:28.760Z,20.40
2023-03-31T12:14:01.348Z,20.50
2023-03-31T12:16:49.449Z,20.70
2023-03-31T12:19:43.470Z,20.80
2023-03-31T12:22:13.592Z,20.90
2023-03-31T12:24:41.183Z,21.00
2023-03-31T12:27:27.717Z,21.00
2023-03-31T12:30:06.261Z,21.00
2023-03-31T12:32:40.937Z,21.10
2023-03-31T12:35:37.289Z,21.10
2023-03-31T12:38:10.594Z,21.10
2023-03-31T12:41:12.703Z,21.00
2023-03-31T12:44:11.773Z,21.00
2023-03-31T12:47:11.132Z,21.10
2023-03-31T12:49:50.750Z,21.50
2023-03-31T12:52:39.570Z,21.80
2023-03-31T12:55:34.976Z,22.00
2023-03-31T12:58:24.988Z,22.30
2023-03-31T13:01:14.782Z,22.30
2023-03-31T13:04:20.196Z,22.20
2023-03-31T13:06:54.605Z,22.10
2023-03-31T13:09:31.101Z,21.90
2023-03-31T13:11:58.340Z,21.70
2023-03-31T13:14:42.415Z,21.60
2023-03-31T13:17:38.856Z,21.50
2023-03-31T13:20:36.021Z,21.50
2023-03-31T13:23:25.835Z,21.50
2023-03-31T13:25:58.901Z,21.50
2023-03-31T13:28:42.562Z,21.50
2023-03-31T13:31:13.376Z,21.50
2023-03-31T13:34:02.314Z,21.50
2023-03-31T13:36:32.560Z,21.40
2023-03-31T13:39:33.840Z,21.20
2023-03-31T13:43:06.932Z,21.10
2023-03-31T13:46:19.831Z,20.90
2023-03-31T13:49:17.961Z,20.80
2023-03-31T13:51:59.527Z,20.50
2023-03-31T13:54:30.001Z,20.40
2023-03-31T13:57:35.946Z,20.30
2023-03-31T14:00:33.479Z,20.20
2023-03-31T14:03:37.569Z,20.20
2023-03-31T14:06:27.924Z,20.10
2023-03-31T14:09:05.846Z,19.90
2023-03-31T14:11:33.716Z,19.90
2023-03-31T14:14:09.627Z,19.80
2023-03-31T14:16:41.748Z,19.80
2023-03-31T14:19:50.232Z,19.70
2023-03-31T14:22:44.672Z,19.60
2023-03-31T14:25:44.584Z,19.40
2023-03-31T14:28:18.518Z,19.20
2023-03-31T14:31:13.379Z,19.10
2023-03-31T14:34:30.998Z,19.00
2023-03-31T14:37:21.288Z,18.90
2023-03-31T14:39:56.652Z,18.90
2023-03-31T14:42:37.105Z,18.70
2023-03-31T14:45:20.555Z,18.70
2023-03-31T14:48:16.293Z,18.60
2023-03-31T14:50:46.675Z,18.60
2023-03-31T14:53:16.288Z,18.50
2023-03-31T14:55:57.862Z,18.50
2023-03-31T14:58:38.746Z,18.40
2023-03-31T15:01:10.542Z,18.40
2023-03-31T15:03:42.172Z,18.30
2023-03-31T15:06:11.275Z,18.30
2023-03-31T15:08:38.816Z,18.30
2023-03-31T15:11:14.221Z,18.30
2023-03-31T15:14:00.842Z,18.30
2023-03-31T15:16:45.588Z,18.30
2023-03-31T15:19:22.685Z,18.30
2023-03-31T15:22:14.279Z,18.20
2023-03-31T15:24:41.562Z,18.20
2023-03-31T15:27:37.860Z,18.20
2023-03-31T15:30:16.915Z,18.20
2023-03-31T15:32:45.123Z,18.20
2023-03-31T15:35:23.016Z,18.20
2023-03-31T15:37:54.146Z,18.20
2023-03-31T15:40:25.642Z,18.20
2023-03-31T15:45:44.773Z,18.10
2023-03-31T15:48:48.540Z,18.10
2023-03-31T15:51:29.981Z,18.10
2023-03-31T15:53:57.491Z,18.10
2023-03-31T15:56:44.466Z,18.10
2023-03-31T15:59:25.189Z,18.10
2023-03-31T16:01:59.726Z,18.00
2023-03-31T16:04:35.368Z,18.00
2023-03-31T16:07:09.414Z,18.00
2023-03-31T16:09:51.741Z,18.00
2023-03-31T16:12:43.466Z,18.00
2023-03-31T16:15:18.368Z,17.90
2023-03-31T16:17:56.704Z,17.90
2023-03-31T16:20:40.546Z,17.90
2023-03-31T16:23:40.623Z,17.90
2023-03-31T16:26:08.922Z,17.80
2023-03-31T16:28:38.061Z,17.80
2023-03-31T16:31:36.968Z,17.70
2023-03-31T16:34:11.186Z,17.70
2023-03-31T16:36:39.532Z,17.70
2023-03-31T16:39:07.789Z,17.70
2023-03-31T16:41:38.040Z,17.60
2023-03-31T16:44:06.323Z,17.60
2023-03-31T16:46:34.084Z,17.60
2023-03-31T16:49:01.360Z,17.60
2023-03-31T16:51:28.924Z,17.60
2023-03-31T16:53:58.850Z,17.50
2023-03-31T16:56:27.156Z,17.50
2023-03-31T16:58:55.189Z,17.40
2023-03-31T17:01:22.742Z,17.40
2023-03-31T17:03:49.998Z,17.40
2023-03-31T17:06:17.586Z,17.40
2023-03-31T17:08:44.641Z,17.40
2023-03-31T17:11:14.445Z,17.40
2023-03-31T17:13:43.654Z,17.30
2023-03-31T17:18:42.408Z,17.30
2023-03-31T17:21:13.687Z,17.20
2023-03-31T17:23:42.471Z,17.20
2023-03-31T17:26:12.543Z,17.10
2023-03-31T17:28:41.818Z,17.10
2023-03-31T17:31:19.850Z,17.00
2023-03-31T17:33:47.650Z,17.00
2023-03-31T17:36:15.694Z,16.90
2023-03-31T17:38:43.431Z,16.90
2023-03-31T17:41:13.762Z,16.90
2023-03-31T17:43:46.153Z,16.90
2023-03-31T17:46:15.389Z,16.80
2023-03-31T17:48:43.418Z,16.80
2023-03-31T17:51:15.235Z,16.70
2023-03-31T17:53:45.755Z,16.70
2023-03-31T17:56:15.956Z,16.70
2023-03-31T17:58:43.636Z,16.60
2023-03-31T18:01:12.611Z,16.60
2023-03-31T18:03:39.825Z,16.60
2023-03-31T18:06:12.355Z,16.50
2023-03-31T18:08:41.628Z,16.50
2023-03-31T18:11:10.850Z,16.50
2023-03-31T18:13:38.599Z,16.40
2023-03-31T18:16:09.867Z,16.40
2023-03-31T18:18:39.507Z,16.30
2023-03-31T18:21:11.330Z,16.30
2023-03-31T18:23:39.292Z,16.30
2023-03-31T18:26:11.870Z,16.20
2023-03-31T18:28:40.762Z,16.10
2023-03-31T18:31:09.820Z,16.10
2023-03-31T18:33:38.115Z,16.00
2023-03-31T18:36:07.516Z,16.00
2023-03-31T18:38:36.848Z,15.90
2023-03-31T18:41:04.751Z,15.90
2023-03-31T18:43:33.327Z,15.80
2023-03-31T18:46:01.679Z,15.80
2023-03-31T18:48:29.353Z,15.70
2023-03-31T18:50:57.739Z,15.70
2023-03-31T18:53:25.390Z,15.60
2023-03-31T18:55:56.853Z,15.70
2023-03-31T18:58:29.990Z,15.60
2023-03-31T19:00:59.553Z,15.60
2023-03-31T19:03:27.921Z,15.50
2023-03-31T19:06:10.142Z,15.50
2023-03-31T19:08:38.266Z,15.50
2023-03-31T19:11:13.000Z,15.50
2023-03-31T19:13:42.851Z,15.50
2023-03-31T19:16:13.215Z,15.40
2023-03-31T19:18:40.974Z,15.40
2023-03-31T19:21:08.430Z,15.40
2023-03-31T19:23:35.904Z,15.30
2023-03-31T19:26:03.797Z,15.30
2023-03-31T19:28:31.539Z,15.30
2023-03-31T19:30:59.604Z,15.20
2023-03-31T19:33:27.535Z,15.20
2023-03-31T19:35:55.572Z,15.10
2023-03-31T19:38:23.296Z,15.10
2023-03-31T19:40:51.082Z,15.10
2023-03-31T19:43:24.730Z,15.10
2023-03-31T19:45:54.098Z,15.00
2023-03-31T19:48:21.613Z,15.00
2023-03-31T19:50:59.614Z,14.90
2023-03-31T19:53:31.258Z,14.90
2023-03-31T19:56:01.946Z,14.90
2023-03-31T19:58:30.830Z,14.90
2023-03-31T20:00:58.347Z,14.90
2023-03-31T20:03:27.965Z,14.80
2023-03-31T20:06:12.165Z,14.80
2023-03-31T20:08:44.228Z,14.70
2023-03-31T20:11:14.975Z,14.70
2023-03-31T20:13:44.406Z,14.70
2023-03-31T20:16:21.568Z,14.60
2023-03-31T20:18:58.740Z,14.60
2023-03-31T20:21:29.019Z,14.60
2023-03-31T20:23:57.238Z,14.60
2023-03-31T20:26:32.425Z,14.60
2023-03-31T20:29:04.415Z,14.60
2023-03-31T20:31:39.092Z,14.50
2023-03-31T20:34:12.837Z,14.50
2023-03-31T20:36:43.217Z,14.40
2023-03-31T20:39:12.835Z,14.30
2023-03-31T20:41:40.201Z,14.30
2023-03-31T20:44:13.511Z,14.20
2023-03-31T20:46:43.825Z,14.10
2023-03-31T20:49:12.245Z,13.90
2023-03-31T20:51:41.244Z,13.80
2023-03-31T20:54:08.840Z,13.70
2023-03-31T20:56:40.338Z,13.50
2023-03-31T20:59:12.501Z,13.40
2023-03-31T21:01:42.193Z,13.40
2023-03-31T21:04:11.758Z,13.40
2023-03-31T21:06:43.272Z,13.30
2023-03-31T21:09:12.272Z,13.30
2023-03-31T21:11:40.697Z,13.30
2023-03-31T21:14:12.718Z,13.30
2023-03-31T21:16:40.522Z,13.30
2023-03-31T21:19:07.752Z,13.40
2023-03-31T21:21:36.198Z,13.40
2023-03-31T21:24:03.872Z,13.50
2023-03-31T21:26:31.302Z,13.50
2023-03-31T21:28:58.477Z,13.60
2023-03-31T21:31:27.160Z,13.60
2023-03-31T21:33:57.499Z,13.60
2023-03-31T21:36:26.609Z,13.60
2023-03-31T21:38:57.100Z,13.70
2023-03-31T21:41:29.878Z,13.70
2023-03-31T21:44:00.488Z,13.70
2023-03-31T21:46:32.904Z,13.70
2023-03-31T21:49:01.217Z,13.70
2023-03-31T21:51:28.945Z,13.70
2023-03-31T21:53:56.454Z,13.60
2023-03-31T21:56:28.096Z,13.60
2023-03-31T21:58:55.713Z,13.50
2023-03-31T22:01:23.597Z,13.50
2023-03-31T22:03:51.993Z,13.30
2023-03-31T22:06:20.589Z,13.20
2023-03-31T22:08:47.927Z,13.00
2023-03-31T22:11:15.893Z,13.00
2023-03-31T22:13:43.046Z,12.90
2023-03-31T22:16:18.780Z,12.90
2023-03-31T22:18:47.583Z,12.90
2023-03-31T22:21:22.860Z,13.00
2023-03-31T22:23:56.906Z,12.90
2023-03-31T22:26:27.086Z,12.80
2023-03-31T22:28:55.862Z,12.80
2023-03-31T22:31:23.394Z,12.80
2023-03-31T22:33:50.551Z,12.70
2023-03-31T22:36:18.104Z,12.70
2023-03-31T22:38:45.223Z,12.70
2023-03-31T22:41:13.047Z,12.70
2023-03-31T22:43:40.929Z,12.60
2023-03-31T22:46:09.738Z,12.60
2023-03-31T22:48:37.103Z,12.60
2023-03-31T22:51:08.707Z,12.60
2023-03-31T22:53:35.980Z,12.60
2023-03-31T22:56:07.530Z,12.60
2023-03-31T22:58:34.931Z,12.60
2023-03-31T23:01:02.986Z,12.60
2023-03-31T23:03:30.632Z,12.60
2023-03-31T23:06:02.222Z,12.50
2023-03-31T23:08:29.374Z,12.50
2023-03-31T23:10:59.608Z,12.40
2023-03-31T23:13:28.297Z,12.40
2023-03-31T23:15:56.095Z,12.50
2023-03-31T23:18:23.515Z,12.50
2023-03-31T23:20:50.978Z,12.40
2023-03-31T23:23:18.201Z,12.30
2023-03-31T23:25:45.803Z,12.30
2023-03-31T23:28:13.508Z,12.40
2023-03-31T23:30:41.206Z,12.40
2023-03-31T23:33:08.895Z,12.30
2023-03-31T23:35:36.671Z,12.40
2023-03-31T23:38:04.153Z,12.30
2023-03-31T23:40:31.792Z,12.20
2023-03-31T23:42:58.868Z,12.10
2023-03-31T23:45:26.224Z,12.10
2023-03-31T23:47:53.428Z,12.10
2023-03-31T23:50:20.986Z,12.10
2023-03-31T23:52:49.073Z,12.10
2023-03-31T23:55:16.789Z,12.10
2023-03-31T23:57:43.970Z,12.00
